sensor_id;sensor_type;location;lat;lon;timestamp;P1;durP1;ratioP1;P2;durP2;ratioP2
23634;SDS011;11994;51.038;16.974;2023-01-29T00:01:04;13.70;;;9.20;;
23634;SDS011;11994;51.038;16.974;2023-01-29T00:03:30;15.50;;;9.00;;
23634;SDS011;11994;51.038;16.974;2023-01-29T00:05:55;14.50;;;8.90;;
23634;SDS011;11994;51.038;16.974;2023-01-29T00:08:21;15.90;;;8.90;;
23634;SDS011;11994;51.038;16.974;2023-01-29T00:10:46;16.30;;;9.20;;
23634;SDS011;11994;51.038;16.974;2023-01-29T00:13:12;13.70;;;9.50;;
23634;SDS011;11994;51.038;16.974;2023-01-29T00:15:37;14.80;;;9.50;;
23634;SDS011;11994;51.038;16.974;2023-01-29T00:18:03;16.60;;;9.80;;
23634;SDS011;11994;51.038;16.974;2023-01-29T00:20:29;15.60;;;10.00;;
23634;SDS011;11994;51.038;16.974;2023-01-29T00:22:54;14.60;;;9.80;;
23634;SDS011;11994;51.038;16.974;2023-01-29T00:25:20;16.00;;;10.20;;
23634;SDS011;11994;51.038;16.974;2023-01-29T00:27:45;18.90;;;10.40;;
23634;SDS011;11994;51.038;16.974;2023-01-29T00:30:10;16.90;;;10.30;;
23634;SDS011;11994;51.038;16.974;2023-01-29T00:32:37;16.30;;;10.80;;
23634;SDS011;11994;51.038;16.974;2023-01-29T00:35:04;14.70;;;9.60;;
23634;SDS011;11994;51.038;16.974;2023-01-29T00:37:30;15.00;;;10.20;;
23634;SDS011;11994;51.038;16.974;2023-01-29T00:39:55;16.70;;;10.90;;
23634;SDS011;11994;51.038;16.974;2023-01-29T00:42:21;18.20;;;11.70;;
23634;SDS011;11994;51.038;16.974;2023-01-29T00:45:12;19.60;;;11.60;;
23634;SDS011;11994;51.038;16.974;2023-01-29T00:47:38;18.10;;;10.90;;
23634;SDS011;11994;51.038;16.974;2023-01-29T00:50:05;17.20;;;10.10;;
23634;SDS011;11994;51.038;16.974;2023-01-29T00:52:32;15.80;;;9.50;;
23634;SDS011;11994;51.038;16.974;2023-01-29T00:55:00;15.40;;;9.50;;
23634;SDS011;11994;51.038;16.974;2023-01-29T00:57:26;13.70;;;9.50;;
23634;SDS011;11994;51.038;16.974;2023-01-29T00:59:53;14.50;;;8.40;;
23634;SDS011;11994;51.038;16.974;2023-01-29T01:02:19;11.90;;;8.20;;
23634;SDS011;11994;51.038;16.974;2023-01-29T01:05:03;12.50;;;8.60;;
23634;SDS011;11994;51.038;16.974;2023-01-29T01:07:31;12.50;;;8.30;;
23634;SDS011;11994;51.038;16.974;2023-01-29T01:09:57;12.30;;;7.70;;
23634;SDS011;11994;51.038;16.974;2023-01-29T01:12:41;11.00;;;7.10;;
23634;SDS011;11994;51.038;16.974;2023-01-29T01:15:07;12.70;;;7.20;;
23634;SDS011;11994;51.038;16.974;2023-01-29T01:17:33;11.10;;;7.20;;
23634;SDS011;11994;51.038;16.974;2023-01-29T01:19:59;10.40;;;7.10;;
23634;SDS011;11994;51.038;16.974;2023-01-29T01:22:24;12.40;;;7.10;;
23634;SDS011;11994;51.038;16.974;2023-01-29T01:24:50;12.10;;;7.30;;
23634;SDS011;11994;51.038;16.974;2023-01-29T01:27:15;11.90;;;7.00;;
23634;SDS011;11994;51.038;16.974;2023-01-29T01:29:43;12.60;;;7.70;;
23634;SDS011;11994;51.038;16.974;2023-01-29T01:32:08;14.50;;;8.50;;
23634;SDS011;11994;51.038;16.974;2023-01-29T01:34:34;11.90;;;7.80;;
23634;SDS011;11994;51.038;16.974;2023-01-29T01:36:59;15.50;;;8.20;;
23634;SDS011;11994;51.038;16.974;2023-01-29T01:39:25;14.00;;;8.10;;
23634;SDS011;11994;51.038;16.974;2023-01-29T01:41:51;10.40;;;6.40;;
23634;SDS011;11994;51.038;16.974;2023-01-29T01:47:29;10.50;;;6.20;;
23634;SDS011;11994;51.038;16.974;2023-01-29T01:50:00;12.90;;;6.20;;
23634;SDS011;11994;51.038;16.974;2023-01-29T01:52:31;10.30;;;6.00;;
23634;SDS011;11994;51.038;16.974;2023-01-29T01:54:57;10.90;;;6.10;;
23634;SDS011;11994;51.038;16.974;2023-01-29T01:57:24;8.40;;;5.80;;
23634;SDS011;11994;51.038;16.974;2023-01-29T01:59:52;12.30;;;6.70;;
23634;SDS011;11994;51.038;16.974;2023-01-29T02:02:35;11.40;;;6.90;;
23634;SDS011;11994;51.038;16.974;2023-01-29T02:05:21;10.50;;;6.40;;
23634;SDS011;11994;51.038;16.974;2023-01-29T02:08:06;9.10;;;6.00;;
23634;SDS011;11994;51.038;16.974;2023-01-29T02:10:50;9.80;;;6.10;;
23634;SDS011;11994;51.038;16.974;2023-01-29T02:13:16;9.10;;;5.50;;
23634;SDS011;11994;51.038;16.974;2023-01-29T02:15:43;9.40;;;5.50;;
23634;SDS011;11994;51.038;16.974;2023-01-29T02:18:13;8.40;;;5.70;;
23634;SDS011;11994;51.038;16.974;2023-01-29T02:20:45;9.60;;;5.80;;
23634;SDS011;11994;51.038;16.974;2023-01-29T02:32:21;11.10;;;6.90;;
23634;SDS011;11994;51.038;16.974;2023-01-29T02:37:32;9.90;;;6.70;;
23634;SDS011;11994;51.038;16.974;2023-01-29T02:40:45;10.90;;;6.40;;
23634;SDS011;11994;51.038;16.974;2023-01-29T02:51:43;10.00;;;5.50;;
23634;SDS011;11994;51.038;16.974;2023-01-29T02:54:16;9.80;;;5.20;;
23634;SDS011;11994;51.038;16.974;2023-01-29T02:56:58;9.70;;;5.50;;
23634;SDS011;11994;51.038;16.974;2023-01-29T02:59:33;8.00;;;5.00;;
23634;SDS011;11994;51.038;16.974;2023-01-29T03:02:09;8.10;;;5.20;;
23634;SDS011;11994;51.038;16.974;2023-01-29T03:04:43;8.40;;;5.20;;
23634;SDS011;11994;51.038;16.974;2023-01-29T03:07:24;10.80;;;5.90;;
23634;SDS011;11994;51.038;16.974;2023-01-29T03:10:55;9.40;;;6.20;;
23634;SDS011;11994;51.038;16.974;2023-01-29T03:13:20;9.40;;;6.30;;
23634;SDS011;11994;51.038;16.974;2023-01-29T03:15:57;11.50;;;6.40;;
23634;SDS011;11994;51.038;16.974;2023-01-29T03:18:31;7.90;;;5.50;;
23634;SDS011;11994;51.038;16.974;2023-01-29T03:21:06;8.90;;;5.30;;
23634;SDS011;11994;51.038;16.974;2023-01-29T03:23:55;7.40;;;5.50;;
23634;SDS011;11994;51.038;16.974;2023-01-29T03:26:42;10.60;;;5.80;;
23634;SDS011;11994;51.038;16.974;2023-01-29T03:29:29;8.90;;;6.40;;
23634;SDS011;11994;51.038;16.974;2023-01-29T03:32:16;9.80;;;7.00;;
23634;SDS011;11994;51.038;16.974;2023-01-29T03:34:46;12.30;;;7.20;;
23634;SDS011;11994;51.038;16.974;2023-01-29T03:40:11;10.00;;;6.80;;
23634;SDS011;11994;51.038;16.974;2023-01-29T03:42:43;9.70;;;6.70;;
23634;SDS011;11994;51.038;16.974;2023-01-29T03:50:49;9.50;;;6.90;;
23634;SDS011;11994;51.038;16.974;2023-01-29T03:58:42;7.70;;;5.60;;
23634;SDS011;11994;51.038;16.974;2023-01-29T04:01:19;8.40;;;6.00;;
23634;SDS011;11994;51.038;16.974;2023-01-29T04:03:57;11.70;;;6.00;;
23634;SDS011;11994;51.038;16.974;2023-01-29T04:06:28;9.30;;;5.90;;
23634;SDS011;11994;51.038;16.974;2023-01-29T04:09:02;6.80;;;5.60;;
23634;SDS011;11994;51.038;16.974;2023-01-29T04:11:36;11.00;;;6.50;;
23634;SDS011;11994;51.038;16.974;2023-01-29T04:14:05;9.80;;;6.20;;
23634;SDS011;11994;51.038;16.974;2023-01-29T04:16:32;8.40;;;6.20;;
23634;SDS011;11994;51.038;16.974;2023-01-29T04:19:04;8.90;;;6.20;;
23634;SDS011;11994;51.038;16.974;2023-01-29T04:21:30;9.30;;;6.50;;
23634;SDS011;11994;51.038;16.974;2023-01-29T04:23:56;9.70;;;6.10;;
23634;SDS011;11994;51.038;16.974;2023-01-29T04:26:32;9.10;;;5.40;;
23634;SDS011;11994;51.038;16.974;2023-01-29T04:31:44;9.80;;;6.30;;
23634;SDS011;11994;51.038;16.974;2023-01-29T04:34:40;9.00;;;6.50;;
23634;SDS011;11994;51.038;16.974;2023-01-29T04:39:54;9.40;;;6.90;;
23634;SDS011;11994;51.038;16.974;2023-01-29T04:43:02;11.90;;;7.20;;
23634;SDS011;11994;51.038;16.974;2023-01-29T04:50:48;9.30;;;6.30;;
23634;SDS011;11994;51.038;16.974;2023-01-29T04:53:51;12.10;;;7.10;;
23634;SDS011;11994;51.038;16.974;2023-01-29T04:57:28;9.40;;;6.70;;
23634;SDS011;11994;51.038;16.974;2023-01-29T04:59:49;10.00;;;5.60;;
23634;SDS011;11994;51.038;16.974;2023-01-29T05:02:19;7.70;;;5.70;;
23634;SDS011;11994;51.038;16.974;2023-01-29T05:04:48;7.60;;;5.50;;
23634;SDS011;11994;51.038;16.974;2023-01-29T05:07:14;8.80;;;5.60;;
23634;SDS011;11994;51.038;16.974;2023-01-29T05:09:42;8.50;;;5.80;;
23634;SDS011;11994;51.038;16.974;2023-01-29T05:12:10;10.20;;;6.70;;
23634;SDS011;11994;51.038;16.974;2023-01-29T05:14:38;11.10;;;6.50;;
23634;SDS011;11994;51.038;16.974;2023-01-29T05:17:09;11.40;;;6.30;;
23634;SDS011;11994;51.038;16.974;2023-01-29T05:19:39;10.50;;;6.40;;
23634;SDS011;11994;51.038;16.974;2023-01-29T05:22:05;9.80;;;6.50;;
23634;SDS011;11994;51.038;16.974;2023-01-29T05:24:35;12.10;;;6.80;;
23634;SDS011;11994;51.038;16.974;2023-01-29T05:27:02;9.00;;;5.90;;
23634;SDS011;11994;51.038;16.974;2023-01-29T05:29:46;8.30;;;6.30;;
23634;SDS011;11994;51.038;16.974;2023-01-29T05:32:12;10.20;;;6.20;;
23634;SDS011;11994;51.038;16.974;2023-01-29T05:34:38;7.80;;;5.40;;
23634;SDS011;11994;51.038;16.974;2023-01-29T05:37:03;11.20;;;5.50;;
23634;SDS011;11994;51.038;16.974;2023-01-29T05:39:29;7.10;;;5.20;;
23634;SDS011;11994;51.038;16.974;2023-01-29T05:41:54;8.30;;;5.80;;
23634;SDS011;11994;51.038;16.974;2023-01-29T05:44:20;7.70;;;5.60;;
23634;SDS011;11994;51.038;16.974;2023-01-29T05:46:45;8.90;;;5.90;;
23634;SDS011;11994;51.038;16.974;2023-01-29T05:49:11;10.20;;;6.30;;
23634;SDS011;11994;51.038;16.974;2023-01-29T05:51:36;12.20;;;6.40;;
23634;SDS011;11994;51.038;16.974;2023-01-29T05:54:02;9.10;;;6.60;;
23634;SDS011;11994;51.038;16.974;2023-01-29T05:56:28;8.90;;;6.00;;
23634;SDS011;11994;51.038;16.974;2023-01-29T05:58:53;10.80;;;6.30;;
23634;SDS011;11994;51.038;16.974;2023-01-29T06:01:20;9.40;;;6.20;;
23634;SDS011;11994;51.038;16.974;2023-01-29T06:03:47;8.10;;;6.30;;
23634;SDS011;11994;51.038;16.974;2023-01-29T06:06:13;7.60;;;6.20;;
23634;SDS011;11994;51.038;16.974;2023-01-29T06:08:39;8.60;;;6.50;;
23634;SDS011;11994;51.038;16.974;2023-01-29T06:11:09;9.10;;;5.30;;
23634;SDS011;11994;51.038;16.974;2023-01-29T06:13:36;7.20;;;5.00;;
23634;SDS011;11994;51.038;16.974;2023-01-29T06:16:09;8.20;;;5.60;;
23634;SDS011;11994;51.038;16.974;2023-01-29T06:18:36;9.80;;;6.00;;
23634;SDS011;11994;51.038;16.974;2023-01-29T06:21:03;9.20;;;6.30;;
23634;SDS011;11994;51.038;16.974;2023-01-29T06:23:29;8.80;;;6.30;;
23634;SDS011;11994;51.038;16.974;2023-01-29T06:26:03;9.80;;;6.20;;
23634;SDS011;11994;51.038;16.974;2023-01-29T06:28:30;8.60;;;6.10;;
23634;SDS011;11994;51.038;16.974;2023-01-29T06:30:55;8.30;;;5.70;;
23634;SDS011;11994;51.038;16.974;2023-01-29T06:33:23;8.90;;;6.00;;
23634;SDS011;11994;51.038;16.974;2023-01-29T06:35:48;9.70;;;6.00;;
23634;SDS011;11994;51.038;16.974;2023-01-29T06:38:14;8.70;;;6.40;;
23634;SDS011;11994;51.038;16.974;2023-01-29T06:40:39;9.20;;;6.70;;
23634;SDS011;11994;51.038;16.974;2023-01-29T06:43:04;10.40;;;6.70;;
23634;SDS011;11994;51.038;16.974;2023-01-29T06:45:30;10.40;;;6.50;;
23634;SDS011;11994;51.038;16.974;2023-01-29T06:47:55;7.10;;;5.50;;
23634;SDS011;11994;51.038;16.974;2023-01-29T06:50:21;14.70;;;9.60;;
23634;SDS011;11994;51.038;16.974;2023-01-29T06:52:46;15.10;;;9.40;;
23634;SDS011;11994;51.038;16.974;2023-01-29T06:55:11;36.00;;;17.30;;
23634;SDS011;11994;51.038;16.974;2023-01-29T06:57:37;29.80;;;14.50;;
23634;SDS011;11994;51.038;16.974;2023-01-29T07:00:03;13.70;;;8.80;;
23634;SDS011;11994;51.038;16.974;2023-01-29T07:02:30;9.10;;;6.80;;
23634;SDS011;11994;51.038;16.974;2023-01-29T07:04:55;9.40;;;6.90;;
23634;SDS011;11994;51.038;16.974;2023-01-29T07:07:20;11.00;;;6.80;;
23634;SDS011;11994;51.038;16.974;2023-01-29T07:09:46;10.80;;;7.70;;
23634;SDS011;11994;51.038;16.974;2023-01-29T07:12:11;13.10;;;8.50;;
23634;SDS011;11994;51.038;16.974;2023-01-29T07:14:36;9.40;;;6.90;;
23634;SDS011;11994;51.038;16.974;2023-01-29T07:17:02;14.50;;;8.70;;
23634;SDS011;11994;51.038;16.974;2023-01-29T07:19:27;15.90;;;8.80;;
23634;SDS011;11994;51.038;16.974;2023-01-29T07:21:53;13.40;;;8.00;;
23634;SDS011;11994;51.038;16.974;2023-01-29T07:24:18;10.90;;;7.20;;
23634;SDS011;11994;51.038;16.974;2023-01-29T07:26:44;9.00;;;6.00;;
23634;SDS011;11994;51.038;16.974;2023-01-29T07:29:09;9.00;;;6.30;;
23634;SDS011;11994;51.038;16.974;2023-01-29T07:31:35;9.90;;;6.80;;
23634;SDS011;11994;51.038;16.974;2023-01-29T07:34:00;8.70;;;6.30;;
23634;SDS011;11994;51.038;16.974;2023-01-29T07:36:26;9.20;;;6.90;;
23634;SDS011;11994;51.038;16.974;2023-01-29T07:38:52;13.40;;;7.40;;
23634;SDS011;11994;51.038;16.974;2023-01-29T07:41:17;10.40;;;8.20;;
23634;SDS011;11994;51.038;16.974;2023-01-29T07:43:43;12.70;;;9.40;;
23634;SDS011;11994;51.038;16.974;2023-01-29T07:46:08;14.90;;;10.40;;
23634;SDS011;11994;51.038;16.974;2023-01-29T07:48:34;12.10;;;8.50;;
23634;SDS011;11994;51.038;16.974;2023-01-29T07:50:59;13.60;;;7.90;;
23634;SDS011;11994;51.038;16.974;2023-01-29T07:53:25;10.60;;;7.00;;
23634;SDS011;11994;51.038;16.974;2023-01-29T07:55:51;11.30;;;7.80;;
23634;SDS011;11994;51.038;16.974;2023-01-29T07:58:17;12.10;;;7.90;;
23634;SDS011;11994;51.038;16.974;2023-01-29T08:00:42;9.50;;;7.40;;
23634;SDS011;11994;51.038;16.974;2023-01-29T08:03:12;10.80;;;7.90;;
23634;SDS011;11994;51.038;16.974;2023-01-29T08:05:43;12.50;;;7.80;;
23634;SDS011;11994;51.038;16.974;2023-01-29T08:08:09;9.30;;;7.40;;
23634;SDS011;11994;51.038;16.974;2023-01-29T08:10:35;11.00;;;8.10;;
23634;SDS011;11994;51.038;16.974;2023-01-29T08:13:01;13.10;;;8.30;;
23634;SDS011;11994;51.038;16.974;2023-01-29T08:15:28;14.20;;;8.90;;
23634;SDS011;11994;51.038;16.974;2023-01-29T08:17:54;13.20;;;9.70;;
23634;SDS011;11994;51.038;16.974;2023-01-29T08:20:21;12.80;;;9.10;;
23634;SDS011;11994;51.038;16.974;2023-01-29T08:22:47;10.40;;;7.60;;
23634;SDS011;11994;51.038;16.974;2023-01-29T08:25:13;11.50;;;7.70;;
23634;SDS011;11994;51.038;16.974;2023-01-29T08:27:39;12.70;;;8.90;;
23634;SDS011;11994;51.038;16.974;2023-01-29T08:30:06;12.70;;;9.00;;
23634;SDS011;11994;51.038;16.974;2023-01-29T08:32:32;13.10;;;8.70;;
23634;SDS011;11994;51.038;16.974;2023-01-29T08:34:57;11.20;;;8.50;;
23634;SDS011;11994;51.038;16.974;2023-01-29T08:37:22;12.50;;;9.10;;
23634;SDS011;11994;51.038;16.974;2023-01-29T08:39:48;23.70;;;13.90;;
23634;SDS011;11994;51.038;16.974;2023-01-29T08:42:13;18.00;;;12.10;;
23634;SDS011;11994;51.038;16.974;2023-01-29T08:44:39;23.90;;;14.40;;
23634;SDS011;11994;51.038;16.974;2023-01-29T08:47:04;19.00;;;13.30;;
23634;SDS011;11994;51.038;16.974;2023-01-29T08:49:29;17.60;;;13.20;;
23634;SDS011;11994;51.038;16.974;2023-01-29T08:51:55;22.20;;;14.20;;
23634;SDS011;11994;51.038;16.974;2023-01-29T08:54:21;13.70;;;9.20;;
23634;SDS011;11994;51.038;16.974;2023-01-29T08:56:47;19.10;;;11.50;;
23634;SDS011;11994;51.038;16.974;2023-01-29T08:59:12;15.30;;;11.80;;
23634;SDS011;11994;51.038;16.974;2023-01-29T09:01:38;19.50;;;13.00;;
23634;SDS011;11994;51.038;16.974;2023-01-29T09:04:03;15.80;;;10.90;;
23634;SDS011;11994;51.038;16.974;2023-01-29T09:06:29;18.50;;;12.50;;
23634;SDS011;11994;51.038;16.974;2023-01-29T09:08:54;17.80;;;11.90;;
23634;SDS011;11994;51.038;16.974;2023-01-29T09:11:20;23.40;;;13.10;;
23634;SDS011;11994;51.038;16.974;2023-01-29T09:13:45;22.90;;;13.30;;
23634;SDS011;11994;51.038;16.974;2023-01-29T09:16:10;23.90;;;13.80;;
23634;SDS011;11994;51.038;16.974;2023-01-29T09:18:36;20.80;;;13.00;;
23634;SDS011;11994;51.038;16.974;2023-01-29T09:21:01;17.50;;;12.30;;
23634;SDS011;11994;51.038;16.974;2023-01-29T09:23:28;18.80;;;12.30;;
23634;SDS011;11994;51.038;16.974;2023-01-29T09:25:54;17.80;;;12.50;;
23634;SDS011;11994;51.038;16.974;2023-01-29T09:28:20;15.50;;;11.50;;
23634;SDS011;11994;51.038;16.974;2023-01-29T09:30:45;16.50;;;11.10;;
23634;SDS011;11994;51.038;16.974;2023-01-29T09:33:11;16.20;;;10.70;;
23634;SDS011;11994;51.038;16.974;2023-01-29T09:35:38;16.80;;;10.60;;
23634;SDS011;11994;51.038;16.974;2023-01-29T09:38:05;22.10;;;15.00;;
23634;SDS011;11994;51.038;16.974;2023-01-29T09:41:20;22.60;;;13.90;;
23634;SDS011;11994;51.038;16.974;2023-01-29T09:46:16;18.50;;;11.20;;
23634;SDS011;11994;51.038;16.974;2023-01-29T09:48:47;18.00;;;12.50;;
23634;SDS011;11994;51.038;16.974;2023-01-29T09:51:26;22.00;;;13.60;;
23634;SDS011;11994;51.038;16.974;2023-01-29T09:54:47;20.60;;;13.80;;
23634;SDS011;11994;51.038;16.974;2023-01-29T09:56:49;21.90;;;14.60;;
23634;SDS011;11994;51.038;16.974;2023-01-29T09:59:19;18.10;;;12.20;;
23634;SDS011;11994;51.038;16.974;2023-01-29T10:02:07;16.40;;;11.60;;
23634;SDS011;11994;51.038;16.974;2023-01-29T10:04:48;14.70;;;10.80;;
23634;SDS011;11994;51.038;16.974;2023-01-29T10:23:50;21.50;;;14.10;;
23634;SDS011;11994;51.038;16.974;2023-01-29T10:26:23;21.30;;;13.40;;
23634;SDS011;11994;51.038;16.974;2023-01-29T10:28:53;19.30;;;11.60;;
23634;SDS011;11994;51.038;16.974;2023-01-29T10:31:23;17.70;;;11.90;;
23634;SDS011;11994;51.038;16.974;2023-01-29T10:33:54;17.70;;;11.40;;
23634;SDS011;11994;51.038;16.974;2023-01-29T10:36:25;17.20;;;12.40;;
23634;SDS011;11994;51.038;16.974;2023-01-29T10:39:09;20.60;;;12.80;;
23634;SDS011;11994;51.038;16.974;2023-01-29T10:52:42;11.60;;;8.10;;
23634;SDS011;11994;51.038;16.974;2023-01-29T11:00:44;11.50;;;8.60;;
23634;SDS011;11994;51.038;16.974;2023-01-29T11:05:46;12.20;;;9.30;;
23634;SDS011;11994;51.038;16.974;2023-01-29T11:08:21;15.50;;;10.30;;
23634;SDS011;11994;51.038;16.974;2023-01-29T11:10:53;12.90;;;9.90;;
23634;SDS011;11994;51.038;16.974;2023-01-29T11:13:30;15.30;;;10.50;;
23634;SDS011;11994;51.038;16.974;2023-01-29T11:16:00;14.30;;;9.50;;
23634;SDS011;11994;51.038;16.974;2023-01-29T11:18:25;16.10;;;10.60;;
23634;SDS011;11994;51.038;16.974;2023-01-29T11:21:01;15.90;;;11.40;;
23634;SDS011;11994;51.038;16.974;2023-01-29T11:23:29;16.80;;;12.20;;
23634;SDS011;11994;51.038;16.974;2023-01-29T11:25:56;13.00;;;10.60;;
23634;SDS011;11994;51.038;16.974;2023-01-29T11:31:28;14.00;;;10.20;;
23634;SDS011;11994;51.038;16.974;2023-01-29T11:34:03;14.80;;;10.40;;
23634;SDS011;11994;51.038;16.974;2023-01-29T11:36:37;14.80;;;10.90;;
23634;SDS011;11994;51.038;16.974;2023-01-29T11:39:07;16.00;;;11.40;;
23634;SDS011;11994;51.038;16.974;2023-01-29T11:41:43;15.90;;;10.20;;
23634;SDS011;11994;51.038;16.974;2023-01-29T11:45:10;12.10;;;9.10;;
23634;SDS011;11994;51.038;16.974;2023-01-29T11:47:19;12.40;;;8.60;;
23634;SDS011;11994;51.038;16.974;2023-01-29T11:49:51;11.10;;;7.80;;
23634;SDS011;11994;51.038;16.974;2023-01-29T11:52:19;11.80;;;8.30;;
23634;SDS011;11994;51.038;16.974;2023-01-29T11:59:57;13.90;;;9.60;;
23634;SDS011;11994;51.038;16.974;2023-01-29T12:05:05;12.90;;;9.20;;
23634;SDS011;11994;51.038;16.974;2023-01-29T12:07:40;13.90;;;9.00;;
23634;SDS011;11994;51.038;16.974;2023-01-29T12:10:27;12.50;;;8.80;;
23634;SDS011;11994;51.038;16.974;2023-01-29T12:15:45;12.70;;;9.80;;
23634;SDS011;11994;51.038;16.974;2023-01-29T12:20:44;13.60;;;8.30;;
23634;SDS011;11994;51.038;16.974;2023-01-29T12:26:05;12.10;;;8.70;;
23634;SDS011;11994;51.038;16.974;2023-01-29T12:36:47;20.50;;;9.90;;
23634;SDS011;11994;51.038;16.974;2023-01-29T12:39:20;14.20;;;8.80;;
23634;SDS011;11994;51.038;16.974;2023-01-29T12:42:00;15.00;;;9.60;;
23634;SDS011;11994;51.038;16.974;2023-01-29T12:44:34;14.20;;;8.80;;
23634;SDS011;11994;51.038;16.974;2023-01-29T12:47:06;10.50;;;7.90;;
23634;SDS011;11994;51.038;16.974;2023-01-29T12:49:37;15.70;;;9.00;;
23634;SDS011;11994;51.038;16.974;2023-01-29T12:54:33;17.80;;;10.10;;
23634;SDS011;11994;51.038;16.974;2023-01-29T12:57:06;27.40;;;12.90;;
23634;SDS011;11994;51.038;16.974;2023-01-29T12:59:39;25.10;;;13.10;;
23634;SDS011;11994;51.038;16.974;2023-01-29T13:02:15;24.20;;;13.40;;
23634;SDS011;11994;51.038;16.974;2023-01-29T13:04:58;25.00;;;13.10;;
23634;SDS011;11994;51.038;16.974;2023-01-29T13:07:35;24.80;;;13.10;;
23634;SDS011;11994;51.038;16.974;2023-01-29T13:10:09;20.50;;;12.50;;
23634;SDS011;11994;51.038;16.974;2023-01-29T13:12:39;17.60;;;11.30;;
23634;SDS011;11994;51.038;16.974;2023-01-29T13:15:23;16.80;;;11.10;;
23634;SDS011;11994;51.038;16.974;2023-01-29T13:17:54;19.40;;;11.90;;
23634;SDS011;11994;51.038;16.974;2023-01-29T13:20:27;15.00;;;9.80;;
23634;SDS011;11994;51.038;16.974;2023-01-29T13:22:57;17.50;;;11.00;;
23634;SDS011;11994;51.038;16.974;2023-01-29T13:25:43;17.00;;;9.90;;
23634;SDS011;11994;51.038;16.974;2023-01-29T13:28:15;17.10;;;11.70;;
23634;SDS011;11994;51.038;16.974;2023-01-29T13:30:43;18.50;;;11.50;;
23634;SDS011;11994;51.038;16.974;2023-01-29T13:33:14;17.50;;;11.50;;
23634;SDS011;11994;51.038;16.974;2023-01-29T13:35:47;16.30;;;11.40;;
23634;SDS011;11994;51.038;16.974;2023-01-29T13:38:23;20.20;;;13.00;;
23634;SDS011;11994;51.038;16.974;2023-01-29T13:40:51;16.10;;;10.70;;
23634;SDS011;11994;51.038;16.974;2023-01-29T13:43:23;15.20;;;10.00;;
23634;SDS011;11994;51.038;16.974;2023-01-29T13:45:50;17.80;;;11.40;;
23634;SDS011;11994;51.038;16.974;2023-01-29T13:48:25;16.10;;;10.80;;
23634;SDS011;11994;51.038;16.974;2023-01-29T13:50:56;12.60;;;9.30;;
23634;SDS011;11994;51.038;16.974;2023-01-29T13:53:26;13.20;;;9.10;;
23634;SDS011;11994;51.038;16.974;2023-01-29T13:56:27;15.30;;;10.80;;
23634;SDS011;11994;51.038;16.974;2023-01-29T13:59:03;15.70;;;10.90;;
23634;SDS011;11994;51.038;16.974;2023-01-29T14:06:52;13.80;;;9.80;;
23634;SDS011;11994;51.038;16.974;2023-01-29T14:09:33;17.70;;;11.10;;
23634;SDS011;11994;51.038;16.974;2023-01-29T14:12:02;15.70;;;10.40;;
23634;SDS011;11994;51.038;16.974;2023-01-29T14:17:15;17.30;;;10.20;;
23634;SDS011;11994;51.038;16.974;2023-01-29T14:19:49;16.00;;;9.70;;
23634;SDS011;11994;51.038;16.974;2023-01-29T14:22:20;16.60;;;10.40;;
23634;SDS011;11994;51.038;16.974;2023-01-29T14:25:00;18.10;;;11.70;;
23634;SDS011;11994;51.038;16.974;2023-01-29T14:27:28;25.80;;;15.60;;
23634;SDS011;11994;51.038;16.974;2023-01-29T14:29:59;22.90;;;13.70;;
23634;SDS011;11994;51.038;16.974;2023-01-29T14:32:26;20.30;;;13.00;;
23634;SDS011;11994;51.038;16.974;2023-01-29T14:39:54;23.40;;;15.10;;
23634;SDS011;11994;51.038;16.974;2023-01-29T14:42:27;31.60;;;18.90;;
23634;SDS011;11994;51.038;16.974;2023-01-29T14:45:06;36.20;;;20.20;;
23634;SDS011;11994;51.038;16.974;2023-01-29T15:00:54;22.80;;;15.80;;
23634;SDS011;11994;51.038;16.974;2023-01-29T15:05:50;28.30;;;16.90;;
23634;SDS011;11994;51.038;16.974;2023-01-29T15:08:22;27.00;;;18.30;;
23634;SDS011;11994;51.038;16.974;2023-01-29T15:11:32;27.60;;;16.90;;
23634;SDS011;11994;51.038;16.974;2023-01-29T15:16:43;27.80;;;17.80;;
23634;SDS011;11994;51.038;16.974;2023-01-29T15:19:23;24.40;;;15.70;;
23634;SDS011;11994;51.038;16.974;2023-01-29T15:22:04;21.80;;;15.80;;
23634;SDS011;11994;51.038;16.974;2023-01-29T15:24:30;22.80;;;15.70;;
23634;SDS011;11994;51.038;16.974;2023-01-29T15:26:55;25.60;;;16.60;;
23634;SDS011;11994;51.038;16.974;2023-01-29T15:29:25;23.30;;;15.90;;
23634;SDS011;11994;51.038;16.974;2023-01-29T15:31:52;22.70;;;15.00;;
23634;SDS011;11994;51.038;16.974;2023-01-29T15:34:18;18.50;;;12.90;;
23634;SDS011;11994;51.038;16.974;2023-01-29T15:36:44;21.30;;;12.30;;
23634;SDS011;11994;51.038;16.974;2023-01-29T15:39:19;20.90;;;12.70;;
23634;SDS011;11994;51.038;16.974;2023-01-29T15:41:47;18.30;;;13.40;;
23634;SDS011;11994;51.038;16.974;2023-01-29T15:44:20;21.00;;;13.10;;
23634;SDS011;11994;51.038;16.974;2023-01-29T15:49:24;21.50;;;12.60;;
23634;SDS011;11994;51.038;16.974;2023-01-29T15:51:55;18.80;;;13.80;;
23634;SDS011;11994;51.038;16.974;2023-01-29T15:54:23;19.30;;;13.60;;
23634;SDS011;11994;51.038;16.974;2023-01-29T15:56:51;20.40;;;13.50;;
23634;SDS011;11994;51.038;16.974;2023-01-29T15:59:18;22.10;;;14.20;;
23634;SDS011;11994;51.038;16.974;2023-01-29T16:01:49;23.90;;;14.00;;
23634;SDS011;11994;51.038;16.974;2023-01-29T16:04:20;18.80;;;13.30;;
23634;SDS011;11994;51.038;16.974;2023-01-29T16:06:50;21.80;;;15.50;;
23634;SDS011;11994;51.038;16.974;2023-01-29T16:09:18;21.00;;;15.80;;
23634;SDS011;11994;51.038;16.974;2023-01-29T16:11:47;21.40;;;15.50;;
23634;SDS011;11994;51.038;16.974;2023-01-29T16:14:14;21.30;;;15.00;;
23634;SDS011;11994;51.038;16.974;2023-01-29T16:16:44;28.10;;;17.60;;
23634;SDS011;11994;51.038;16.974;2023-01-29T16:19:22;25.80;;;18.00;;
23634;SDS011;11994;51.038;16.974;2023-01-29T16:21:57;20.90;;;14.20;;
23634;SDS011;11994;51.038;16.974;2023-01-29T16:24:24;16.00;;;12.60;;
23634;SDS011;11994;51.038;16.974;2023-01-29T16:27:24;21.10;;;12.90;;
23634;SDS011;11994;51.038;16.974;2023-01-29T16:29:43;20.20;;;13.90;;
23634;SDS011;11994;51.038;16.974;2023-01-29T16:32:08;21.40;;;15.40;;
23634;SDS011;11994;51.038;16.974;2023-01-29T16:34:38;18.90;;;15.10;;
23634;SDS011;11994;51.038;16.974;2023-01-29T16:37:07;20.90;;;15.40;;
23634;SDS011;11994;51.038;16.974;2023-01-29T16:39:50;19.50;;;15.40;;
23634;SDS011;11994;51.038;16.974;2023-01-29T16:45:00;20.40;;;15.10;;
23634;SDS011;11994;51.038;16.974;2023-01-29T16:47:30;23.40;;;15.70;;
23634;SDS011;11994;51.038;16.974;2023-01-29T16:53:01;24.90;;;17.60;;
23634;SDS011;11994;51.038;16.974;2023-01-29T16:55:35;31.90;;;20.90;;
23634;SDS011;11994;51.038;16.974;2023-01-29T16:58:14;27.90;;;19.10;;
23634;SDS011;11994;51.038;16.974;2023-01-29T17:00:42;27.60;;;19.90;;
23634;SDS011;11994;51.038;16.974;2023-01-29T17:03:10;23.50;;;17.70;;
23634;SDS011;11994;51.038;16.974;2023-01-29T17:05:37;25.60;;;17.50;;
23634;SDS011;11994;51.038;16.974;2023-01-29T17:08:02;27.10;;;19.30;;
23634;SDS011;11994;51.038;16.974;2023-01-29T17:10:29;23.10;;;15.40;;
23634;SDS011;11994;51.038;16.974;2023-01-29T17:13:06;25.30;;;15.40;;
23634;SDS011;11994;51.038;16.974;2023-01-29T17:15:43;22.60;;;17.80;;